createdAt,value
2023-01-30T00:01:32.708Z,6.57
2023-01-30T00:05:34.477Z,6.95
2023-01-30T00:09:36.242Z,7.28
2023-01-30T00:13:39.170Z,6.57
2023-01-30T00:17:40.919Z,7.22
2023-01-30T00:21:42.657Z,7.65
2023-01-30T00:25:46.026Z,6.68
2023-01-30T00:29:57.684Z,7.13
2023-01-30T00:34:05.610Z,8.18
2023-01-30T00:38:07.360Z,7.75
2023-01-30T00:42:28.848Z,7.20
2023-01-30T00:46:52.234Z,7.28
2023-01-30T00:50:54.485Z,7.05
2023-01-30T00:54:56.256Z,7.45
2023-01-30T00:58:58.105Z,7.68
2023-01-30T01:03:00.201Z,8.32
2023-01-30T01:07:01.996Z,7.38
2023-01-30T01:11:03.986Z,6.32
2023-01-30T01:15:06.354Z,7.32
2023-01-30T01:19:08.256Z,9.40
2023-01-30T01:23:11.219Z,7.20
2023-01-30T01:27:12.993Z,8.65
2023-01-30T01:31:17.505Z,6.85
2023-01-30T01:35:20.189Z,8.10
2023-01-30T01:39:22.529Z,8.93
2023-01-30T01:43:25.829Z,8.55
2023-01-30T01:47:28.243Z,8.63
2023-01-30T01:51:33.700Z,9.40
2023-01-30T01:55:36.826Z,9.18
2023-01-30T01:59:48.431Z,8.60
2023-01-30T02:03:56.788Z,7.88
2023-01-30T02:08:06.856Z,7.85
2023-01-30T02:12:11.318Z,7.00
2023-01-30T02:16:13.311Z,7.40
2023-01-30T02:20:46.093Z,7.03
2023-01-30T02:24:53.785Z,7.88
2023-01-30T02:29:17.013Z,8.15
2023-01-30T02:33:21.789Z,8.50
2023-01-30T02:37:32.594Z,9.13
2023-01-30T02:41:49.084Z,7.63
2023-01-30T02:45:57.053Z,8.43
2023-01-30T02:50:07.756Z,8.27
2023-01-30T02:54:13.490Z,7.38
2023-01-30T02:58:19.726Z,7.68
2023-01-30T03:02:40.995Z,9.43
2023-01-30T03:07:07.520Z,4.63
2023-01-30T03:11:11.262Z,9.52
2023-01-30T03:15:41.218Z,9.45
2023-01-30T03:19:43.952Z,8.38
2023-01-30T03:23:46.929Z,9.18
2023-01-30T03:27:51.151Z,8.68
2023-01-30T03:31:53.256Z,10.15
2023-01-30T03:35:55.113Z,10.00
2023-01-30T03:39:56.942Z,9.32
2023-01-30T03:43:59.841Z,8.73
2023-01-30T03:48:01.930Z,9.68
2023-01-30T03:52:05.673Z,9.65
2023-01-30T03:56:07.626Z,8.75
2023-01-30T04:00:11.709Z,9.07
2023-01-30T04:04:19.132Z,9.48
2023-01-30T04:08:21.279Z,9.70
2023-01-30T04:12:23.302Z,8.00
2023-01-30T04:16:30.460Z,10.68
2023-01-30T04:20:50.921Z,10.70
2023-01-30T04:24:58.893Z,10.48
2023-01-30T04:29:01.131Z,9.82
2023-01-30T04:33:04.086Z,10.02
2023-01-30T04:37:06.139Z,11.13
2023-01-30T04:41:08.182Z,8.88
2023-01-30T04:45:14.288Z,9.98
2023-01-30T04:49:16.626Z,10.10
2023-01-30T04:53:20.645Z,9.05
2023-01-30T04:57:22.716Z,10.57
2023-01-30T05:01:33.184Z,11.15
2023-01-30T05:05:35.146Z,9.40
2023-01-30T05:09:37.059Z,11.20
2023-01-30T05:13:39.111Z,11.15
2023-01-30T05:17:43.768Z,10.68
2023-01-30T05:21:46.565Z,9.52
2023-01-30T05:25:48.421Z,9.70
2023-01-30T05:29:50.357Z,12.25
2023-01-30T05:33:53.395Z,11.82
2023-01-30T05:37:55.248Z,10.65
2023-01-30T05:41:57.163Z,10.10
2023-01-30T05:46:01.807Z,10.23
2023-01-30T05:50:03.761Z,9.73
2023-01-30T05:54:05.675Z,11.02
2023-01-30T05:58:07.531Z,10.73
2023-01-30T06:02:11.136Z,10.65
2023-01-30T06:06:14.047Z,11.18
2023-01-30T06:10:16.195Z,12.00
2023-01-30T06:14:18.388Z,10.32
2023-01-30T06:18:20.223Z,9.90
2023-01-30T06:22:22.041Z,11.05
2023-01-30T06:26:23.943Z,11.52
2023-01-30T06:30:25.847Z,9.70
2023-01-30T06:34:27.842Z,9.90
2023-01-30T06:38:29.694Z,8.75
2023-01-30T06:42:31.465Z,10.50
2023-01-30T06:46:33.309Z,9.00
2023-01-30T06:50:35.773Z,9.77
2023-01-30T06:54:39.140Z,9.18
2023-01-30T06:58:41.069Z,9.95
2023-01-30T07:02:42.941Z,9.20
2023-01-30T07:06:46.175Z,9.55
2023-01-30T07:10:47.976Z,10.00
2023-01-30T07:14:49.781Z,10.80
2023-01-30T07:18:52.717Z,9.00
2023-01-30T07:22:55.867Z,10.30
2023-01-30T07:26:57.694Z,12.30
2023-01-30T07:31:00.798Z,8.50
2023-01-30T07:35:05.918Z,9.23
2023-01-30T07:39:09.510Z,10.93
2023-01-30T07:43:13.597Z,9.10
2023-01-30T07:47:15.569Z,10.68
2023-01-30T07:51:17.361Z,8.98
2023-01-30T07:55:19.400Z,10.23
2023-01-30T07:59:21.425Z,9.10
2023-01-30T08:03:23.234Z,9.85
2023-01-30T08:07:24.973Z,8.52
2023-01-30T08:11:26.738Z,8.75
2023-01-30T08:15:28.611Z,8.10
2023-01-30T08:19:30.461Z,6.38
2023-01-30T08:23:33.914Z,7.57
2023-01-30T08:27:35.673Z,8.98
2023-01-30T08:31:37.545Z,9.52
2023-01-30T08:35:40.136Z,9.15
2023-01-30T08:39:41.986Z,8.75
2023-01-30T08:43:43.776Z,10.05
2023-01-30T08:47:45.723Z,9.43
2023-01-30T08:51:47.509Z,8.13
2023-01-30T08:55:53.228Z,9.20
2023-01-30T08:59:55.128Z,9.60
2023-01-30T09:03:57.695Z,8.50
2023-01-30T09:07:59.466Z,9.30
2023-01-30T09:12:01.465Z,9.40
2023-01-30T09:16:04.223Z,8.15
2023-01-30T09:20:08.748Z,7.30
2023-01-30T09:24:10.513Z,6.53
2023-01-30T09:28:12.434Z,8.98
2023-01-30T09:32:14.198Z,5.20
2023-01-30T09:36:15.983Z,5.65
2023-01-30T09:40:22.191Z,7.75
2023-01-30T09:44:42.026Z,4.85
2023-01-30T09:48:58.116Z,6.47
2023-01-30T09:53:14.763Z,7.68
2023-01-30T09:57:21.851Z,7.18
2023-01-30T10:01:45.548Z,8.32
2023-01-30T10:05:49.175Z,5.32
2023-01-30T10:09:50.911Z,6.20
2023-01-30T10:14:26.277Z,5.75
2023-01-30T10:18:39.408Z,7.05
2023-01-30T10:22:47.153Z,6.75
2023-01-30T10:26:49.028Z,5.75
2023-01-30T10:30:56.547Z,5.50
2023-01-30T10:35:16.867Z,6.85
2023-01-30T10:39:27.725Z,6.15
2023-01-30T10:43:36.960Z,5.07
2023-01-30T10:47:47.385Z,6.95
2023-01-30T10:52:11.876Z,5.32
2023-01-30T10:56:24.977Z,5.63
2023-01-30T11:00:35.807Z,5.80
2023-01-30T11:05:04.183Z,6.05
2023-01-30T11:09:05.951Z,6.05
2023-01-30T11:13:17.478Z,6.25
2023-01-30T11:17:21.585Z,5.10
2023-01-30T11:21:43.115Z,5.03
2023-01-30T11:25:59.275Z,5.13
2023-01-30T11:30:17.690Z,4.97
2023-01-30T11:34:22.225Z,3.97
2023-01-30T11:38:30.400Z,3.58
2023-01-30T11:42:32.528Z,2.75
2023-01-30T11:46:36.862Z,2.70
2023-01-30T11:50:46.533Z,2.75
2023-01-30T11:54:53.723Z,3.20
2023-01-30T11:59:01.129Z,3.72
2023-01-30T12:03:06.459Z,3.90
2023-01-30T12:07:20.827Z,3.10
2023-01-30T12:11:42.356Z,3.92
2023-01-30T12:15:45.583Z,3.60
2023-01-30T12:20:11.662Z,4.53
2023-01-30T12:24:26.111Z,3.72
2023-01-30T12:28:53.978Z,4.47
2023-01-30T12:37:25.143Z,5.22
2023-01-30T12:41:51.492Z,4.00
2023-01-30T12:46:13.637Z,5.65
2023-01-30T12:50:29.721Z,5.32
2023-01-30T12:54:55.715Z,6.07
2023-01-30T12:59:06.570Z,5.47
2023-01-30T13:03:50.199Z,5.78
2023-01-30T13:08:07.213Z,4.53
2023-01-30T13:12:27.334Z,5.15
2023-01-30T13:17:06.980Z,5.30
2023-01-30T13:21:18.714Z,4.32
2023-01-30T13:25:39.448Z,6.18
2023-01-30T13:29:42.086Z,5.70
2023-01-30T13:33:47.683Z,4.65
2023-01-30T13:37:51.673Z,5.50
2023-01-30T13:41:57.469Z,4.90
2023-01-30T13:46:03.370Z,5.50
2023-01-30T13:50:23.228Z,5.40
2023-01-30T13:54:50.658Z,5.57
2023-01-30T14:03:21.994Z,6.35
2023-01-30T14:07:31.046Z,5.78
2023-01-30T14:11:36.459Z,6.10
2023-01-30T14:15:42.723Z,6.10
2023-01-30T14:19:58.917Z,5.20
2023-01-30T14:24:02.357Z,6.10
2023-01-30T14:28:04.088Z,4.95
2023-01-30T14:32:12.802Z,6.72
2023-01-30T14:36:14.792Z,4.63
2023-01-30T14:40:38.491Z,5.15
2023-01-30T14:45:15.285Z,5.28
2023-01-30T14:49:29.481Z,7.10
2023-01-30T14:53:31.309Z,5.22
2023-01-30T14:57:34.743Z,4.57
2023-01-30T15:02:13.478Z,5.70
2023-01-30T15:06:16.381Z,6.38
2023-01-30T15:10:36.243Z,5.25
2023-01-30T15:15:02.072Z,6.75
2023-01-30T15:19:31.572Z,4.78
2023-01-30T15:24:15.083Z,6.70
2023-01-30T15:28:25.989Z,6.15
2023-01-30T15:32:30.577Z,5.07
2023-01-30T15:36:36.459Z,4.88
2023-01-30T15:40:40.849Z,4.40
2023-01-30T15:44:52.852Z,5.60
2023-01-30T15:49:16.740Z,4.20
2023-01-30T15:53:27.347Z,4.68
2023-01-30T15:57:36.973Z,4.70
2023-01-30T16:01:38.809Z,3.67
2023-01-30T16:05:50.908Z,3.35
2023-01-30T16:10:06.950Z,4.35
2023-01-30T16:14:17.290Z,5.15
2023-01-30T16:18:33.677Z,3.67
2023-01-30T16:22:35.559Z,4.93
2023-01-30T16:26:43.107Z,3.70
2023-01-30T16:30:45.040Z,4.25
2023-01-30T16:34:47.003Z,3.83
2023-01-30T16:38:50.411Z,5.15
2023-01-30T16:43:04.453Z,5.68
2023-01-30T16:47:21.797Z,3.03
2023-01-30T16:51:24.476Z,3.45
2023-01-30T16:55:27.046Z,4.70
2023-01-30T16:59:31.862Z,3.88
2023-01-30T17:03:40.534Z,4.18
2023-01-30T17:07:42.384Z,3.13
2023-01-30T17:11:44.111Z,4.05
2023-01-30T17:15:45.884Z,4.68
2023-01-30T17:19:48.722Z,4.35
2023-01-30T17:23:56.284Z,3.80
2023-01-30T17:27:59.004Z,4.25
2023-01-30T17:32:01.157Z,3.60
2023-01-30T17:36:06.077Z,3.70
2023-01-30T17:40:20.277Z,3.55
2023-01-30T17:44:22.495Z,4.05
2023-01-30T17:48:24.244Z,4.18
2023-01-30T17:52:26.051Z,3.10
2023-01-30T17:56:32.775Z,4.70
2023-01-30T18:00:34.585Z,4.15
2023-01-30T18:04:36.425Z,4.90
2023-01-30T18:08:38.283Z,3.58
2023-01-30T18:12:40.105Z,3.67
2023-01-30T18:16:42.377Z,2.95
2023-01-30T18:20:44.204Z,4.47
2023-01-30T18:24:46.058Z,3.00
2023-01-30T18:28:48.654Z,3.53
2023-01-30T18:32:53.299Z,3.95
2023-01-30T18:36:55.607Z,3.83
2023-01-30T18:40:57.497Z,4.18
2023-01-30T18:44:59.288Z,3.97
2023-01-30T18:49:01.083Z,4.15
2023-01-30T18:53:03.127Z,3.65
2023-01-30T18:57:04.895Z,3.72
2023-01-30T19:01:14.581Z,4.95
2023-01-30T19:05:16.401Z,3.78
2023-01-30T19:09:19.096Z,3.65
2023-01-30T19:13:33.152Z,3.88
2023-01-30T19:17:34.903Z,3.53
2023-01-30T19:21:37.120Z,4.35
2023-01-30T19:25:38.854Z,4.65
2023-01-30T19:29:41.691Z,4.15
2023-01-30T19:33:45.818Z,3.75
2023-01-30T19:37:47.614Z,4.93
2023-01-30T19:41:49.366Z,5.53
2023-01-30T19:45:58.213Z,4.45
2023-01-30T19:49:59.992Z,4.05
2023-01-30T19:54:07.742Z,3.88
2023-01-30T19:58:09.564Z,5.20
2023-01-30T20:02:11.741Z,3.63
2023-01-30T20:06:19.688Z,3.53
2023-01-30T20:10:21.728Z,5.10
2023-01-30T20:14:23.635Z,4.70
2023-01-30T20:18:25.383Z,4.05
2023-01-30T20:22:27.369Z,4.30
2023-01-30T20:26:32.262Z,3.75
2023-01-30T20:30:34.128Z,4.07
2023-01-30T20:34:35.931Z,3.92
2023-01-30T20:38:40.234Z,3.63
2023-01-30T20:42:42.055Z,3.28
2023-01-30T20:46:45.939Z,2.85
2023-01-30T20:50:47.762Z,3.60
2023-01-30T20:54:49.487Z,3.78
2023-01-30T20:58:51.866Z,3.70
2023-01-30T21:02:53.642Z,4.20
2023-01-30T21:06:55.658Z,2.60
2023-01-30T21:11:05.034Z,3.80
2023-01-30T21:15:07.384Z,3.13
2023-01-30T21:19:14.272Z,3.88
2023-01-30T21:23:16.226Z,3.60
2023-01-30T21:27:19.493Z,4.70
2023-01-30T21:31:24.209Z,3.67
2023-01-30T21:35:26.040Z,3.45
2023-01-30T21:39:46.540Z,3.65
2023-01-30T21:43:48.929Z,3.53
2023-01-30T21:47:52.103Z,3.22
2023-01-30T21:51:54.233Z,3.40
2023-01-30T21:55:55.986Z,4.00
2023-01-30T21:59:57.753Z,4.38
2023-01-30T22:04:00.934Z,3.65
2023-01-30T22:08:03.211Z,3.15
2023-01-30T22:12:05.110Z,4.07
2023-01-30T22:16:09.631Z,3.83
2023-01-30T22:20:12.237Z,3.72
2023-01-30T22:24:13.983Z,4.22
2023-01-30T22:28:15.750Z,2.92
2023-01-30T22:32:17.521Z,4.35
2023-01-30T22:36:20.082Z,3.63
2023-01-30T22:40:21.854Z,4.18
2023-01-30T22:44:23.616Z,4.35
2023-01-30T22:48:26.016Z,3.92
2023-01-30T22:52:27.783Z,4.15
2023-01-30T22:56:31.787Z,3.45
2023-01-30T23:00:33.647Z,3.70
2023-01-30T23:04:35.853Z,3.50
2023-01-30T23:08:40.418Z,3.10
2023-01-30T23:13:00.888Z,2.88
2023-01-30T23:17:25.992Z,4.10
2023-01-30T23:21:31.632Z,3.45
2023-01-30T23:25:33.456Z,3.08
2023-01-30T23:29:35.442Z,3.58
2023-01-30T23:33:37.680Z,3.80
2023-01-30T23:37:57.919Z,4.00
2023-01-30T23:41:59.691Z,3.35
2023-01-30T23:46:28.165Z,3.38
2023-01-30T23:50:29.933Z,3.05
2023-01-30T23:54:31.687Z,3.75
2023-01-30T23:58:33.931Z,3.22
